createdAt,value
2023-03-25T00:00:25.702Z,5.99
2023-03-25T00:01:32.967Z,6.00
2023-03-25T00:02:35.748Z,5.97
2023-03-25T00:03:42.073Z,5.96
2023-03-25T00:04:44.347Z,5.96
2023-03-25T00:05:49.690Z,5.96
2023-03-25T00:06:52.226Z,5.92
2023-03-25T00:07:57.602Z,5.93
2023-03-25T00:08:59.769Z,5.89
2023-03-25T00:10:04.493Z,5.87
2023-03-25T00:11:08.547Z,5.87
2023-03-25T00:12:13.444Z,5.89
2023-03-25T00:13:15.694Z,5.84
2023-03-25T00:14:20.466Z,5.86
2023-03-25T00:15:24.027Z,5.86
2023-03-25T00:16:31.481Z,5.89
2023-03-25T00:17:33.718Z,5.85
2023-03-25T00:18:40.179Z,5.83
2023-03-25T00:19:43.368Z,5.81
2023-03-25T00:20:49.784Z,5.84
2023-03-25T00:21:52.304Z,5.83
2023-03-25T00:22:57.462Z,5.87
2023-03-25T00:23:59.603Z,5.82
2023-03-25T00:25:04.429Z,5.81
2023-03-25T00:26:07.672Z,5.76
2023-03-25T00:27:12.411Z,5.79
2023-03-25T00:28:15.346Z,5.77
2023-03-25T00:29:20.265Z,5.75
2023-03-25T00:30:22.556Z,5.75
2023-03-25T00:31:27.418Z,5.71
2023-03-25T00:32:32.259Z,5.73
2023-03-25T00:33:37.776Z,5.73
2023-03-25T00:34:42.132Z,5.71
2023-03-25T00:35:49.604Z,5.69
2023-03-25T00:36:54.610Z,5.68
2023-03-25T00:38:00.582Z,5.65
2023-03-25T00:39:05.480Z,5.67
2023-03-25T00:40:09.659Z,5.60
2023-03-25T00:41:17.805Z,5.63
2023-03-25T00:42:26.586Z,5.58
2023-03-25T00:43:28.760Z,5.52
2023-03-25T00:44:34.147Z,5.54
2023-03-25T00:45:36.449Z,5.48
2023-03-25T00:46:42.023Z,5.49
2023-03-25T00:47:47.097Z,5.49
2023-03-25T00:48:52.901Z,5.47
2023-03-25T00:49:55.106Z,5.45
2023-03-25T00:50:59.885Z,5.43
2023-03-25T00:52:02.122Z,5.40
2023-03-25T00:53:08.526Z,5.39
2023-03-25T00:54:11.930Z,5.38
2023-03-25T00:55:17.447Z,5.38
2023-03-25T00:56:19.859Z,5.42
2023-03-25T00:57:25.108Z,5.38
2023-03-25T00:58:27.221Z,5.36
2023-03-25T00:59:31.916Z,5.38
2023-03-25T01:00:34.472Z,5.33
2023-03-25T01:01:40.910Z,5.36
2023-03-25T01:02:44.050Z,5.34
2023-03-25T01:03:57.989Z,5.32
2023-03-25T01:05:00.385Z,5.34
2023-03-25T01:06:05.097Z,5.36
2023-03-25T01:07:08.103Z,5.33
2023-03-25T01:08:15.010Z,5.35
2023-03-25T01:09:17.357Z,5.33
2023-03-25T01:10:22.456Z,5.36
2023-03-25T01:11:27.178Z,5.36
2023-03-25T01:12:31.927Z,5.33
2023-03-25T01:13:34.103Z,5.36
2023-03-25T01:14:38.922Z,5.41
2023-03-25T01:15:41.352Z,5.41
2023-03-25T01:16:46.929Z,5.38
2023-03-25T01:17:49.236Z,5.36
2023-03-25T01:18:56.877Z,5.33
2023-03-25T01:19:59.227Z,5.37
2023-03-25T01:21:03.985Z,5.34
2023-03-25T01:22:07.973Z,5.31
2023-03-25T01:23:12.742Z,5.29
2023-03-25T01:24:15.555Z,5.26
2023-03-25T01:25:20.585Z,5.22
2023-03-25T01:26:22.709Z,5.19
2023-03-25T01:27:27.503Z,5.16
2023-03-25T01:28:29.848Z,5.16
2023-03-25T01:29:35.051Z,5.15
2023-03-25T01:30:37.246Z,5.11
2023-03-25T01:31:42.114Z,5.13
2023-03-25T01:32:44.828Z,5.10
2023-03-25T01:33:49.536Z,5.11
2023-03-25T01:34:54.317Z,5.11
2023-03-25T01:35:59.235Z,5.07
2023-03-25T01:37:01.347Z,5.05
2023-03-25T01:38:06.393Z,5.03
2023-03-25T01:39:09.355Z,5.00
2023-03-25T01:40:21.293Z,4.96
2023-03-25T01:41:23.630Z,5.00
2023-03-25T01:42:28.418Z,4.96
2023-03-25T01:43:30.810Z,4.93
2023-03-25T01:45:06.605Z,4.88
2023-03-25T01:46:14.490Z,4.91
2023-03-25T01:47:19.995Z,4.87
2023-03-25T01:48:28.615Z,4.82
2023-03-25T01:49:33.746Z,4.79
2023-03-25T01:50:45.499Z,4.75
2023-03-25T01:51:51.510Z,4.69
2023-03-25T01:52:56.373Z,4.64
2023-03-25T01:53:58.743Z,4.61
2023-03-25T01:55:03.595Z,4.61
2023-03-25T01:56:09.007Z,4.61
2023-03-25T01:57:18.504Z,4.61
2023-03-25T01:58:23.021Z,4.56
2023-03-25T01:59:30.697Z,4.67
2023-03-25T02:00:32.867Z,4.59
2023-03-25T02:01:37.659Z,4.62
2023-03-25T02:02:40.571Z,4.62
2023-03-25T02:03:51.442Z,4.59
2023-03-25T02:05:02.628Z,4.61
2023-03-25T02:06:15.237Z,4.59
2023-03-25T02:07:18.920Z,4.63
2023-03-25T02:08:25.921Z,4.66
2023-03-25T02:09:28.341Z,4.69
2023-03-25T02:10:33.499Z,4.67
2023-03-25T02:11:36.421Z,4.67
2023-03-25T02:12:41.819Z,4.69
2023-03-25T02:13:46.641Z,4.67
2023-03-25T02:14:48.868Z,4.68
2023-03-25T02:16:17.871Z,4.74
2023-03-25T02:17:30.619Z,4.76
2023-03-25T02:18:44.980Z,4.83
2023-03-25T02:20:19.511Z,4.91
2023-03-25T02:22:06.087Z,4.90
2023-03-25T02:23:48.193Z,4.92
2023-03-25T02:25:23.436Z,4.88
2023-03-25T02:27:00.048Z,4.92
2023-03-25T02:28:12.775Z,4.90
2023-03-25T02:29:26.914Z,4.86
2023-03-25T02:30:54.988Z,4.87
2023-03-25T02:32:17.257Z,4.86
2023-03-25T02:33:55.581Z,4.88
2023-03-25T02:35:16.396Z,4.86
2023-03-25T02:36:50.955Z,4.84
2023-03-25T02:38:19.512Z,4.81
2023-03-25T02:39:33.297Z,4.83
2023-03-25T02:40:42.640Z,4.83
2023-03-25T02:41:55.548Z,4.83
2023-03-25T02:43:05.977Z,4.89
2023-03-25T02:44:17.105Z,4.86
2023-03-25T02:45:26.157Z,4.86
2023-03-25T02:46:33.517Z,4.81
2023-03-25T02:47:42.799Z,4.86
2023-03-25T02:48:54.413Z,4.83
2023-03-25T02:49:58.864Z,4.83
2023-03-25T02:51:10.485Z,4.80
2023-03-25T02:52:15.114Z,4.81
2023-03-25T02:53:24.469Z,4.83
2023-03-25T02:54:33.681Z,4.82
2023-03-25T02:55:41.642Z,4.82
2023-03-25T02:56:47.532Z,4.86
2023-03-25T02:57:57.368Z,4.87
2023-03-25T02:59:01.340Z,4.88
2023-03-25T03:00:15.422Z,4.86
2023-03-25T03:01:17.784Z,4.91
2023-03-25T03:02:25.840Z,4.88
2023-03-25T03:03:29.157Z,4.86
2023-03-25T03:04:33.916Z,4.89
2023-03-25T03:05:39.785Z,4.91
2023-03-25T03:06:46.512Z,4.89
2023-03-25T03:07:53.967Z,4.88
2023-03-25T03:09:14.300Z,4.84
2023-03-25T03:10:22.495Z,4.84
2023-03-25T03:11:31.126Z,4.83
2023-03-25T03:12:47.614Z,4.82
2023-03-25T03:14:07.371Z,4.82
2023-03-25T03:15:24.421Z,4.86
2023-03-25T03:16:34.117Z,4.85
2023-03-25T03:17:46.420Z,4.83
2023-03-25T03:18:58.826Z,4.86
2023-03-25T03:20:10.153Z,4.85
2023-03-25T03:21:17.039Z,4.90
2023-03-25T03:22:37.250Z,4.89
2023-03-25T03:23:51.710Z,4.87
2023-03-25T03:25:04.030Z,4.87
2023-03-25T03:26:17.885Z,4.92
2023-03-25T03:27:34.140Z,4.91
2023-03-25T03:28:48.098Z,4.89
2023-03-25T03:29:54.958Z,4.87
2023-03-25T03:31:07.140Z,4.88
2023-03-25T03:32:13.898Z,4.82
2023-03-25T03:33:25.709Z,4.80
2023-03-25T03:34:32.828Z,4.74
2023-03-25T03:35:41.054Z,4.62
2023-03-25T03:36:47.287Z,4.47
2023-03-25T03:37:58.406Z,4.36
2023-03-25T03:39:07.463Z,4.26
2023-03-25T03:40:17.472Z,4.25
2023-03-25T03:41:27.305Z,4.21
2023-03-25T03:42:37.667Z,4.15
2023-03-25T03:43:43.337Z,3.99
2023-03-25T03:44:54.228Z,3.98
2023-03-25T03:46:00.331Z,3.98
2023-03-25T03:47:07.416Z,3.91
2023-03-25T03:48:16.263Z,3.88
2023-03-25T03:49:26.508Z,3.84
2023-03-25T03:50:31.964Z,3.83
2023-03-25T03:51:41.727Z,3.80
2023-03-25T03:52:51.695Z,3.84
2023-03-25T03:54:01.822Z,3.82
2023-03-25T03:55:10.985Z,3.78
2023-03-25T03:56:22.133Z,3.72
2023-03-25T03:57:30.560Z,3.69
2023-03-25T03:58:43.223Z,3.67
2023-03-25T03:59:53.791Z,3.69
2023-03-25T04:01:06.754Z,3.68
2023-03-25T04:02:17.380Z,3.71
2023-03-25T04:03:28.580Z,3.67
2023-03-25T04:04:31.886Z,3.66
2023-03-25T04:05:38.760Z,3.64
2023-03-25T04:06:44.249Z,3.63
2023-03-25T04:07:55.168Z,3.63
2023-03-25T04:10:15.037Z,3.65
2023-03-25T04:11:25.132Z,3.64
2023-03-25T04:12:32.716Z,3.72
2023-03-25T04:13:40.548Z,3.75
2023-03-25T04:14:43.461Z,3.72
2023-03-25T04:15:48.577Z,3.72
2023-03-25T04:16:53.318Z,3.76
2023-03-25T04:17:58.091Z,3.77
2023-03-25T04:19:00.181Z,3.81
2023-03-25T04:20:08.996Z,3.89
2023-03-25T04:23:10.063Z,3.90
2023-03-25T04:24:12.263Z,3.89
2023-03-25T04:25:17.194Z,3.88
2023-03-25T04:26:20.103Z,3.89
2023-03-25T04:27:29.971Z,3.84
2023-03-25T04:28:36.978Z,3.80
2023-03-25T04:29:44.148Z,3.77
2023-03-25T04:30:46.699Z,3.75
2023-03-25T04:31:54.962Z,3.70
2023-03-25T04:32:57.455Z,3.67
2023-03-25T04:34:02.870Z,3.67
2023-03-25T04:35:05.680Z,3.65
2023-03-25T04:36:11.938Z,3.60
2023-03-25T04:37:16.841Z,3.56
2023-03-25T04:38:19.551Z,3.55
2023-03-25T04:39:25.893Z,3.57
2023-03-25T04:40:28.035Z,3.61
2023-03-25T04:41:33.849Z,3.62
2023-03-25T04:42:37.532Z,3.59
2023-03-25T04:43:45.427Z,3.58
2023-03-25T04:44:47.525Z,3.57
2023-03-25T04:45:55.298Z,3.60
2023-03-25T04:46:58.038Z,3.61
2023-03-25T04:48:06.187Z,3.55
2023-03-25T04:49:14.461Z,3.62
2023-03-25T04:50:23.351Z,3.64
2023-03-25T04:51:25.524Z,3.70
2023-03-25T04:52:30.635Z,3.75
2023-03-25T04:53:32.996Z,3.75
2023-03-25T04:54:38.656Z,3.76
2023-03-25T04:55:48.339Z,3.78
2023-03-25T04:56:55.114Z,3.78
2023-03-25T04:57:57.469Z,3.78
2023-03-25T04:59:04.766Z,3.80
2023-03-25T05:00:11.760Z,3.79
2023-03-25T05:01:24.424Z,3.81
2023-03-25T05:02:27.303Z,3.79
2023-03-25T05:03:32.015Z,3.78
2023-03-25T05:04:34.467Z,3.72
2023-03-25T05:05:39.281Z,3.69
2023-03-25T05:06:43.708Z,3.66
2023-03-25T05:07:49.943Z,3.65
2023-03-25T05:08:52.092Z,3.63
2023-03-25T05:09:57.368Z,3.65
2023-03-25T05:10:59.514Z,3.59
2023-03-25T05:12:04.324Z,3.57
2023-03-25T05:13:08.393Z,3.56
2023-03-25T05:14:18.349Z,3.53
2023-03-25T05:15:20.570Z,3.54
2023-03-25T05:16:25.856Z,3.50
2023-03-25T05:17:30.076Z,3.43
2023-03-25T05:18:34.890Z,3.40
2023-03-25T05:19:37.063Z,3.34
2023-03-25T05:20:43.350Z,3.33
2023-03-25T05:21:45.671Z,3.32
2023-03-25T05:22:50.396Z,3.37
2023-03-25T05:23:52.949Z,3.46
2023-03-25T05:24:57.630Z,3.51
2023-03-25T05:26:00.198Z,3.54
2023-03-25T05:27:04.957Z,3.51
2023-03-25T05:28:10.085Z,3.49
2023-03-25T05:29:19.426Z,3.50
2023-03-25T05:30:21.707Z,3.48
2023-03-25T05:31:26.383Z,3.45
2023-03-25T05:32:30.328Z,3.44
2023-03-25T05:33:35.231Z,3.45
2023-03-25T05:34:38.842Z,3.43
2023-03-25T05:35:43.740Z,3.45
2023-03-25T05:36:46.080Z,3.44
2023-03-25T05:37:51.724Z,3.43
2023-03-25T05:38:54.722Z,3.45
2023-03-25T05:39:59.521Z,3.46
2023-03-25T05:41:01.694Z,3.51
2023-03-25T05:42:06.518Z,3.54
2023-03-25T05:43:08.812Z,3.55
2023-03-25T05:44:14.917Z,3.62
2023-03-25T05:45:19.903Z,3.64
2023-03-25T05:46:24.726Z,3.65
2023-03-25T05:47:29.277Z,3.70
2023-03-25T05:48:35.978Z,3.72
2023-03-25T05:49:38.078Z,3.76
2023-03-25T05:50:43.432Z,3.81
2023-03-25T05:51:46.046Z,3.80
2023-03-25T05:52:52.609Z,3.82
2023-03-25T05:53:54.831Z,3.86
2023-03-25T05:54:59.571Z,3.88
2023-03-25T05:56:01.732Z,3.94
2023-03-25T05:57:06.710Z,3.98
2023-03-25T05:58:08.865Z,3.99
2023-03-25T05:59:14.648Z,4.01
2023-03-25T06:00:23.414Z,4.01
2023-03-25T06:01:33.111Z,4.07
2023-03-25T06:02:39.001Z,4.11
2023-03-25T06:03:44.129Z,4.12
2023-03-25T06:04:50.774Z,4.13
2023-03-25T06:05:56.782Z,4.13
2023-03-25T06:06:59.049Z,4.16
2023-03-25T06:08:04.050Z,4.18
2023-03-25T06:09:07.260Z,4.18
2023-03-25T06:10:17.358Z,4.21
2023-03-25T06:11:20.818Z,4.24
2023-03-25T06:12:27.801Z,4.26
2023-03-25T06:13:34.283Z,4.31
2023-03-25T06:14:36.414Z,4.34
2023-03-25T06:15:44.816Z,4.39
2023-03-25T06:16:47.373Z,4.37
2023-03-25T06:17:52.173Z,4.40
2023-03-25T06:18:56.618Z,4.36
2023-03-25T06:20:05.920Z,4.39
2023-03-25T06:21:08.897Z,4.41
2023-03-25T06:22:14.696Z,4.44
2023-03-25T06:23:16.926Z,4.44
2023-03-25T06:24:22.399Z,4.49
2023-03-25T06:25:28.677Z,4.46
2023-03-25T06:26:33.488Z,4.56
2023-03-25T06:27:40.655Z,4.56
2023-03-25T06:28:46.328Z,4.65
2023-03-25T06:29:48.833Z,4.63
2023-03-25T06:30:57.349Z,4.63
2023-03-25T06:31:59.536Z,4.58
2023-03-25T06:33:06.277Z,4.67
2023-03-25T06:34:08.477Z,4.64
2023-03-25T06:35:18.461Z,4.72
2023-03-25T06:36:20.865Z,4.76
2023-03-25T06:37:26.200Z,4.74
2023-03-25T06:38:30.257Z,4.78
2023-03-25T06:39:38.161Z,4.81
2023-03-25T06:40:43.045Z,4.84
2023-03-25T06:41:45.260Z,4.82
2023-03-25T06:42:50.052Z,4.87
2023-03-25T06:43:52.349Z,4.90
2023-03-25T06:44:57.568Z,4.92
2023-03-25T06:46:02.463Z,4.92
2023-03-25T06:47:07.666Z,4.90
2023-03-25T06:48:09.950Z,4.88
2023-03-25T06:49:14.723Z,4.93
2023-03-25T06:50:16.853Z,4.91
2023-03-25T06:51:22.876Z,4.95
2023-03-25T06:52:25.083Z,4.84
2023-03-25T06:53:29.999Z,4.85
2023-03-25T06:54:32.301Z,4.84
2023-03-25T06:55:37.027Z,4.88
2023-03-25T06:56:39.337Z,4.93
2023-03-25T06:57:44.717Z,4.98
2023-03-25T06:58:47.094Z,4.94
2023-03-25T06:59:51.914Z,4.96
2023-03-25T07:00:54.953Z,4.94
2023-03-25T07:02:02.463Z,4.98
2023-03-25T07:03:07.453Z,4.97
2023-03-25T07:04:12.262Z,4.98
2023-03-25T07:05:14.505Z,5.00
2023-03-25T07:06:21.978Z,5.00
2023-03-25T07:07:24.097Z,4.96
2023-03-25T07:08:28.838Z,4.98
2023-03-25T07:09:30.977Z,5.01
2023-03-25T07:10:35.710Z,5.14
2023-03-25T07:11:37.998Z,5.22
2023-03-25T07:12:42.749Z,5.32
2023-03-25T07:13:44.848Z,5.38
2023-03-25T07:14:54.144Z,5.45
2023-03-25T07:15:56.780Z,5.49
2023-03-25T07:17:04.180Z,5.52
2023-03-25T07:18:06.481Z,5.46
2023-03-25T07:19:11.380Z,5.44
2023-03-25T07:20:15.840Z,5.50
2023-03-25T07:21:22.153Z,5.46
2023-03-25T07:22:24.419Z,5.41
2023-03-25T07:23:29.588Z,5.45
2023-03-25T07:24:31.864Z,5.44
2023-03-25T07:25:37.228Z,5.51
2023-03-25T07:26:39.397Z,5.57
2023-03-25T07:27:44.310Z,5.57
2023-03-25T07:28:48.201Z,5.61
2023-03-25T07:29:53.074Z,5.57
2023-03-25T07:30:55.151Z,5.63
2023-03-25T07:31:59.930Z,5.72
2023-03-25T07:33:04.806Z,5.67
2023-03-25T07:34:09.587Z,5.71
2023-03-25T07:35:11.947Z,5.74
2023-03-25T07:36:16.915Z,5.78
2023-03-25T07:37:18.982Z,5.77
2023-03-25T07:38:23.724Z,5.79
2023-03-25T07:39:25.958Z,5.80
2023-03-25T07:40:30.632Z,5.84
2023-03-25T07:41:32.724Z,5.94
2023-03-25T07:42:39.181Z,5.94
2023-03-25T07:43:42.123Z,6.06
2023-03-25T07:44:46.862Z,6.02
2023-03-25T07:45:51.588Z,6.04
2023-03-25T07:46:53.845Z,5.99
2023-03-25T07:47:58.761Z,5.84
2023-03-25T07:49:03.619Z,5.97
2023-03-25T07:50:09.845Z,5.94
2023-03-25T07:51:14.572Z,5.96
2023-03-25T07:52:16.706Z,5.79
2023-03-25T07:53:21.899Z,5.78
2023-03-25T07:54:24.665Z,5.71
2023-03-25T07:55:29.416Z,5.68
2023-03-25T07:56:31.612Z,5.70
2023-03-25T07:57:36.284Z,5.63
2023-03-25T07:58:38.680Z,5.64
2023-03-25T07:59:43.519Z,5.53
2023-03-25T08:00:45.944Z,5.54
2023-03-25T08:01:50.992Z,5.48
2023-03-25T08:02:53.188Z,5.37
2023-03-25T08:03:58.041Z,5.34
2023-03-25T08:05:06.051Z,5.45
2023-03-25T08:06:11.825Z,5.54
2023-03-25T08:07:14.010Z,5.58
2023-03-25T08:08:18.997Z,5.69
2023-03-25T08:09:23.815Z,5.79
2023-03-25T08:10:26.921Z,5.82
2023-03-25T08:11:33.193Z,5.85
2023-03-25T08:12:37.612Z,5.93
2023-03-25T08:13:42.547Z,6.02
2023-03-25T08:14:44.665Z,6.13
2023-03-25T08:15:49.787Z,6.14
2023-03-25T08:16:52.152Z,6.12
2023-03-25T08:17:57.868Z,6.21
2023-03-25T08:19:00.147Z,6.37
2023-03-25T08:20:09.545Z,6.46
2023-03-25T08:21:11.875Z,6.70
2023-03-25T08:22:16.639Z,6.69
2023-03-25T08:23:20.229Z,6.60
2023-03-25T08:24:27.069Z,6.78
2023-03-25T08:25:29.814Z,6.89
2023-03-25T08:26:35.233Z,6.78
2023-03-25T08:27:37.403Z,6.90
2023-03-25T08:28:42.136Z,6.99
2023-03-25T08:29:44.330Z,6.95
2023-03-25T08:30:49.607Z,7.09
2023-03-25T08:31:53.722Z,7.25
2023-03-25T08:32:58.494Z,7.03
2023-03-25T08:35:38.257Z,7.24
2023-03-25T08:36:40.443Z,7.40
2023-03-25T08:37:45.168Z,7.46
2023-03-25T08:38:47.532Z,7.38
2023-03-25T08:39:52.222Z,7.40
2023-03-25T08:40:54.373Z,7.47
2023-03-25T08:41:59.473Z,7.66
2023-03-25T08:43:03.652Z,7.69
2023-03-25T08:44:08.877Z,7.89
2023-03-25T08:45:12.134Z,7.63
2023-03-25T08:46:17.128Z,7.71
2023-03-25T08:47:19.371Z,7.78
2023-03-25T08:48:25.075Z,7.81
2023-03-25T08:49:29.788Z,7.62
2023-03-25T08:50:34.547Z,7.59
2023-03-25T08:51:39.284Z,7.53
2023-03-25T08:52:42.244Z,7.51
2023-03-25T08:53:46.953Z,7.75
2023-03-25T08:54:49.212Z,7.97
2023-03-25T08:55:55.732Z,8.05
2023-03-25T08:56:58.074Z,8.15
2023-03-25T08:58:05.114Z,7.97
2023-03-25T08:59:09.808Z,7.92
2023-03-25T09:00:13.399Z,8.14
2023-03-25T09:01:18.140Z,8.46
2023-03-25T09:02:20.713Z,8.66
2023-03-25T09:03:27.252Z,8.64
2023-03-25T09:04:29.652Z,8.37
2023-03-25T09:05:39.811Z,8.11
2023-03-25T09:06:47.541Z,8.46
2023-03-25T09:07:53.384Z,8.36
2023-03-25T09:08:58.934Z,8.24
2023-03-25T09:10:04.217Z,8.05
2023-03-25T09:11:09.493Z,8.17
2023-03-25T09:12:11.824Z,8.13
2023-03-25T09:13:16.686Z,8.01
2023-03-25T09:14:18.886Z,7.94
2023-03-25T09:15:24.054Z,8.00
2023-03-25T09:16:26.382Z,7.70
2023-03-25T09:17:31.159Z,7.55
2023-03-25T09:18:33.309Z,7.42
2023-03-25T09:19:38.183Z,7.38
2023-03-25T09:20:47.860Z,7.00
2023-03-25T09:21:52.562Z,6.87
2023-03-25T09:22:54.863Z,6.71
2023-03-25T09:23:59.571Z,6.68
2023-03-25T09:25:01.790Z,6.67
2023-03-25T09:26:06.779Z,6.71
2023-03-25T09:27:09.404Z,6.59
2023-03-25T09:28:14.783Z,6.43
2023-03-25T09:29:17.235Z,6.30
2023-03-25T09:30:22.138Z,6.24
2023-03-25T09:31:24.632Z,6.15
2023-03-25T09:32:29.523Z,6.09
2023-03-25T09:33:32.025Z,6.12
2023-03-25T09:34:38.342Z,6.15
2023-03-25T09:35:43.153Z,5.91
2023-03-25T09:36:48.278Z,5.92
2023-03-25T09:37:53.028Z,5.88
2023-03-25T09:38:55.209Z,5.69
2023-03-25T09:40:00.306Z,5.70
2023-03-25T09:41:05.532Z,5.70
2023-03-25T09:42:28.088Z,5.68
2023-03-25T09:43:42.850Z,5.73
2023-03-25T09:44:55.700Z,5.84
2023-03-25T09:46:02.928Z,5.98
2023-03-25T09:47:06.131Z,6.39
2023-03-25T09:48:27.812Z,6.76
2023-03-25T09:49:39.216Z,6.99
2023-03-25T09:50:48.361Z,7.13
2023-03-25T09:53:07.985Z,7.36
2023-03-25T09:54:23.437Z,7.73
2023-03-25T09:55:29.106Z,7.83
2023-03-25T09:56:42.166Z,7.98
2023-03-25T09:57:49.340Z,8.02
2023-03-25T09:58:57.303Z,8.27
2023-03-25T10:00:02.203Z,8.52
2023-03-25T10:01:31.506Z,8.75
2023-03-25T10:02:43.307Z,8.69
2023-03-25T10:03:56.020Z,8.42
2023-03-25T10:05:40.268Z,8.38
2023-03-25T10:06:54.824Z,8.37
2023-03-25T10:08:13.660Z,8.64
2023-03-25T10:09:34.750Z,8.36
2023-03-25T10:10:46.288Z,8.20
2023-03-25T10:11:58.427Z,8.10
2023-03-25T10:13:15.104Z,7.96
2023-03-25T10:14:25.178Z,8.08
2023-03-25T10:15:32.698Z,7.99
2023-03-25T10:16:51.354Z,7.99
2023-03-25T10:18:07.774Z,7.73
2023-03-25T10:19:27.935Z,7.87
2023-03-25T10:20:42.404Z,8.22
2023-03-25T10:21:55.947Z,8.06
2023-03-25T10:23:07.835Z,8.47
2023-03-25T10:24:21.438Z,8.49
2023-03-25T10:25:27.667Z,8.65
2023-03-25T10:26:39.572Z,8.96
2023-03-25T10:27:44.963Z,9.17
2023-03-25T10:28:54.599Z,9.01
2023-03-25T10:30:01.480Z,9.07
2023-03-25T10:31:08.831Z,9.01
2023-03-25T10:32:17.116Z,8.96
2023-03-25T10:33:32.013Z,8.99
2023-03-25T10:34:40.695Z,8.73
2023-03-25T10:35:49.004Z,8.79
2023-03-25T10:36:57.908Z,8.60
2023-03-25T10:38:13.904Z,8.82
2023-03-25T10:39:25.482Z,8.71
2023-03-25T10:40:49.376Z,8.79
2023-03-25T10:45:49.112Z,8.91
2023-03-25T10:47:06.057Z,8.72
2023-03-25T10:48:14.469Z,8.66
2023-03-25T10:49:22.265Z,8.74
2023-03-25T10:50:28.012Z,8.64
2023-03-25T10:51:32.650Z,9.03
2023-03-25T10:52:40.192Z,8.98
2023-03-25T10:53:45.450Z,9.06
2023-03-25T10:58:20.509Z,9.79
2023-03-25T10:59:42.028Z,9.44
2023-03-25T11:00:44.678Z,9.83
2023-03-25T11:01:51.363Z,9.99
2023-03-25T11:02:58.966Z,9.78
2023-03-25T11:04:04.249Z,9.49
2023-03-25T11:05:13.273Z,9.35
2023-03-25T11:06:24.804Z,9.36
2023-03-25T11:07:33.830Z,9.35
2023-03-25T11:08:58.693Z,9.15
2023-03-25T11:10:20.607Z,9.48
2023-03-25T11:11:32.882Z,9.59
2023-03-25T11:12:43.331Z,9.56
2023-03-25T11:13:49.879Z,9.32
2023-03-25T11:14:57.547Z,9.03
2023-03-25T11:16:06.904Z,8.86
2023-03-25T11:17:15.586Z,8.95
2023-03-25T11:18:29.086Z,9.01
2023-03-25T11:19:37.413Z,9.05
2023-03-25T11:20:52.044Z,9.18
2023-03-25T11:21:58.883Z,8.93
2023-03-25T11:23:11.969Z,8.94
2023-03-25T11:24:20.577Z,8.91
2023-03-25T11:25:30.002Z,8.83
2023-03-25T11:26:39.316Z,8.75
2023-03-25T11:27:49.734Z,8.87
2023-03-25T11:28:59.328Z,8.88
2023-03-25T11:30:05.684Z,8.87
2023-03-25T11:31:18.630Z,8.89
2023-03-25T11:33:01.651Z,8.59
2023-03-25T11:34:08.021Z,8.44
2023-03-25T11:35:31.135Z,8.47
2023-03-25T11:36:41.825Z,8.41
2023-03-25T11:37:51.449Z,8.27
2023-03-25T11:39:01.094Z,7.81
2023-03-25T11:40:21.265Z,7.65
2023-03-25T11:41:24.210Z,7.47
2023-03-25T11:42:35.274Z,7.23
2023-03-25T11:43:39.086Z,7.18
2023-03-25T11:44:44.411Z,7.32
2023-03-25T11:45:46.837Z,7.41
2023-03-25T11:46:55.485Z,7.63
2023-03-25T11:48:03.284Z,8.02
2023-03-25T11:49:10.188Z,8.10
2023-03-25T11:50:24.585Z,8.34
2023-03-25T11:51:30.184Z,8.55
2023-03-25T11:52:42.645Z,8.86
2023-03-25T11:53:50.059Z,8.95
2023-03-25T11:54:54.155Z,8.95
2023-03-25T11:56:10.829Z,8.84
2023-03-25T11:57:16.684Z,8.77
2023-03-25T11:58:25.050Z,8.83
2023-03-25T11:59:38.330Z,8.61
2023-03-25T12:00:42.377Z,8.79
2023-03-25T12:01:50.157Z,9.03
2023-03-25T12:03:01.078Z,9.15
2023-03-25T12:04:15.051Z,9.13
2023-03-25T12:05:17.664Z,9.10
2023-03-25T12:06:24.556Z,9.16
2023-03-25T12:07:29.510Z,9.06
2023-03-25T12:08:46.480Z,9.04
2023-03-25T12:09:56.674Z,9.18
2023-03-25T12:11:09.353Z,9.15
2023-03-25T12:12:49.759Z,9.29
2023-03-25T12:14:29.950Z,9.68
2023-03-25T12:15:41.826Z,9.84
2023-03-25T12:16:49.914Z,9.83
2023-03-25T12:18:10.792Z,10.20
2023-03-25T12:19:24.171Z,10.39
2023-03-25T12:20:34.431Z,10.41
2023-03-25T12:21:56.471Z,10.28
2023-03-25T12:23:02.032Z,10.14
2023-03-25T12:24:28.145Z,9.78
2023-03-25T12:25:50.334Z,9.66
2023-03-25T12:27:14.675Z,9.67
2023-03-25T12:28:40.342Z,10.08
2023-03-25T12:29:51.832Z,10.26
2023-03-25T12:31:04.692Z,10.16
2023-03-25T12:32:20.597Z,10.39
2023-03-25T12:33:40.901Z,10.17
2023-03-25T12:34:57.708Z,9.87
2023-03-25T12:36:18.293Z,9.92
2023-03-25T12:37:33.572Z,9.69
2023-03-25T12:38:48.679Z,9.52
2023-03-25T12:40:11.182Z,9.51
2023-03-25T12:41:20.505Z,9.42
2023-03-25T12:42:38.923Z,9.38
2023-03-25T12:44:00.563Z,9.26
2023-03-25T12:45:50.082Z,9.17
2023-03-25T12:47:18.160Z,9.01
2023-03-25T12:48:41.920Z,9.37
2023-03-25T12:50:09.873Z,10.19
2023-03-25T12:51:22.812Z,10.52
2023-03-25T12:52:37.514Z,10.40
2023-03-25T12:53:53.453Z,10.61
2023-03-25T12:55:09.089Z,10.31
2023-03-25T12:56:29.424Z,10.09
2023-03-25T12:57:50.725Z,9.71
2023-03-25T12:59:18.784Z,9.55
2023-03-25T13:00:36.018Z,9.51
2023-03-25T13:01:49.830Z,9.26
2023-03-25T13:03:26.824Z,9.13
2023-03-25T13:05:02.107Z,9.23
2023-03-25T13:06:19.112Z,9.19
2023-03-25T13:07:28.792Z,9.24
2023-03-25T13:08:36.053Z,9.03
2023-03-25T13:09:55.134Z,8.69
2023-03-25T13:11:03.002Z,8.50
2023-03-25T13:12:15.114Z,8.38
2023-03-25T13:13:24.547Z,8.35
2023-03-25T13:14:33.814Z,8.37
2023-03-25T13:15:40.597Z,8.29
2023-03-25T13:16:46.911Z,8.27
2023-03-25T13:17:57.133Z,8.20
2023-03-25T13:19:08.494Z,8.23
2023-03-25T13:20:11.761Z,8.26
2023-03-25T13:21:21.955Z,8.30
2023-03-25T13:22:32.174Z,8.68
2023-03-25T13:23:36.977Z,9.56
2023-03-25T13:24:47.418Z,10.20
2023-03-25T13:25:54.543Z,10.08
2023-03-25T13:27:00.888Z,10.81
2023-03-25T13:28:09.959Z,10.91
2023-03-25T13:29:27.929Z,11.16
2023-03-25T13:30:37.761Z,11.46
2023-03-25T13:32:10.998Z,11.33
2023-03-25T13:35:32.339Z,12.71
2023-03-25T13:36:41.762Z,13.02
2023-03-25T13:37:49.739Z,12.91
2023-03-25T13:38:59.493Z,11.97
2023-03-25T13:40:18.207Z,12.37
2023-03-25T13:41:28.760Z,12.10
2023-03-25T13:42:38.442Z,12.53
2023-03-25T13:43:53.643Z,12.19
2023-03-25T13:45:00.672Z,11.52
2023-03-25T13:46:10.690Z,11.26
2023-03-25T13:47:19.229Z,11.24
2023-03-25T13:48:29.889Z,10.34
2023-03-25T13:49:39.588Z,10.49
2023-03-25T13:50:44.637Z,10.13
2023-03-25T13:51:49.402Z,10.14
2023-03-25T13:52:58.893Z,10.10
2023-03-25T13:54:08.790Z,9.69
2023-03-25T13:55:15.913Z,9.76
2023-03-25T13:57:02.249Z,9.80
2023-03-25T13:58:42.420Z,9.68
2023-03-25T14:00:10.307Z,9.62
2023-03-25T14:01:31.582Z,11.08
2023-03-25T14:02:54.785Z,11.86
2023-03-25T14:04:21.843Z,12.89
2023-03-25T14:05:53.152Z,13.56
2023-03-25T14:07:34.981Z,13.75
2023-03-25T14:09:15.642Z,14.23
2023-03-25T14:10:46.934Z,13.21
2023-03-25T14:11:55.823Z,14.59
2023-03-25T14:13:06.096Z,15.51
2023-03-25T14:14:13.265Z,15.13
2023-03-25T14:15:24.658Z,14.01
2023-03-25T14:16:33.404Z,13.91
2023-03-25T14:17:36.998Z,12.90
2023-03-25T14:18:45.706Z,13.41
2023-03-25T14:19:55.597Z,13.59
2023-03-25T14:21:01.290Z,14.94
2023-03-25T14:22:11.342Z,15.58
2023-03-25T14:23:22.896Z,16.03
2023-03-25T14:24:32.920Z,15.00
2023-03-25T14:25:45.039Z,14.16
2023-03-25T14:26:51.029Z,12.83
2023-03-25T14:27:56.763Z,12.64
2023-03-25T14:29:06.302Z,12.65
2023-03-25T14:30:26.540Z,11.65
2023-03-25T14:31:32.120Z,11.35
2023-03-25T14:32:39.131Z,10.98
2023-03-25T14:34:28.396Z,10.48
2023-03-25T14:36:00.550Z,10.30
2023-03-25T14:37:41.800Z,10.20
2023-03-25T14:38:53.896Z,9.93
2023-03-25T14:40:00.996Z,9.46
2023-03-25T14:41:04.114Z,9.57
2023-03-25T14:44:20.316Z,9.26
2023-03-25T14:46:38.028Z,8.55
2023-03-25T14:47:39.451Z,7.60
2023-03-25T14:48:47.968Z,7.26
2023-03-25T14:49:54.765Z,7.10
2023-03-25T14:51:42.630Z,7.11
2023-03-25T14:52:51.069Z,7.18
2023-03-25T14:54:00.249Z,7.10
2023-03-25T14:55:09.080Z,7.24
2023-03-25T14:56:20.809Z,7.53
2023-03-25T14:57:25.015Z,8.10
2023-03-25T14:58:38.036Z,8.17
2023-03-25T14:59:46.478Z,8.80
2023-03-25T15:00:55.713Z,9.86
2023-03-25T15:02:07.225Z,10.42
2023-03-25T15:03:23.481Z,11.27
2023-03-25T15:04:33.643Z,11.79
2023-03-25T15:05:40.076Z,12.91
2023-03-25T15:06:43.571Z,12.89
2023-03-25T15:08:16.924Z,12.43
2023-03-25T15:09:32.568Z,12.85
2023-03-25T15:10:42.537Z,13.50
2023-03-25T15:11:53.354Z,13.90
2023-03-25T15:13:06.729Z,13.28
2023-03-25T15:14:12.112Z,12.58
2023-03-25T15:15:36.012Z,13.21
2023-03-25T15:16:57.694Z,12.24
2023-03-25T15:18:38.505Z,13.45
2023-03-25T15:20:22.237Z,14.12
2023-03-25T15:21:27.907Z,14.58
2023-03-25T15:22:35.579Z,14.92
2023-03-25T15:23:46.534Z,15.85
2023-03-25T15:24:56.830Z,15.65
2023-03-25T15:26:00.172Z,15.25
2023-03-25T15:27:11.543Z,16.07
2023-03-25T15:28:26.302Z,15.99
2023-03-25T15:29:55.720Z,16.36
2023-03-25T15:31:38.468Z,16.59